Time;durP1;ratioP1;P1;durP2;ratioP2;P2;SDS_P1;SDS_P2;PMS_P1;PMS_P2;Temp;Humidity;BMP_temperature;BMP_pressure;BME280_temperature;BME280_humidity;BME280_pressure;Samples;Min_cycle;Max_cycle;Signal;HPM_P1;HPM_P2
2021/10/26 00:01:38;;;;;;;;;17.50;13.75;;;;;;;;5102862;27;112045;-77
2021/10/26 00:04:06;;;;;;;;;13.75;12.00;;;;;;;;5102604;27;112387;-78
2021/10/26 00:06:31;;;;;;;;;12.50;12.50;;;;;;;;5101959;27;112480;-77
2021/10/26 00:08:56;;;;;;;;;16.00;14.00;;;;;;;;5102804;27;111775;-78
2021/10/26 00:11:21;;;;;;;;;16.00;12.25;;;;;;;;5083997;27;114429;-78
2021/10/26 00:13:47;;;;;;;;;16.00;13.00;;;;;;;;5101699;27;112404;-78
2021/10/26 00:16:12;;;;;;;;;12.50;12.50;;;;;;;;5106499;27;111884;-77
2021/10/26 00:18:37;;;;;;;;;16.75;15.25;;;;;;;;5101295;27;114039;-78
2021/10/26 00:21:03;;;;;;;;;11.00;10.50;;;;;;;;5102322;27;112106;-78
2021/10/26 00:23:28;;;;;;;;;16.75;13.00;;;;;;;;5102026;27;112113;-77
2021/10/26 00:25:53;;;;;;;;;12.50;9.75;;;;;;;;5101267;27;112859;-77
2021/10/26 00:28:19;;;;;;;;;14.00;9.00;;;;;;;;5102945;27;111619;-78
2021/10/26 00:30:44;;;;;;;;;15.25;11.00;;;;;;;;5102943;27;111885;-78
2021/10/26 00:33:09;;;;;;;;;19.00;12.00;;;;;;;;5101714;27;112333;-78
2021/10/26 00:35:34;;;;;;;;;13.75;13.75;;;;;;;;5102236;27;112121;-78
2021/10/26 00:38:01;;;;;;;;;14.00;14.00;;;;;;;;5105432;27;111886;-78
2021/10/26 00:40:28;;;;;;;;;15.25;11.50;;;;;;;;5083593;27;112021;-79
2021/10/26 00:42:53;;;;;;;;;13.00;13.00;;;;;;;;5102328;27;111815;-78
2021/10/26 00:45:21;;;;;;;;;16.25;12.00;;;;;;;;5101158;27;112342;-79
2021/10/26 00:47:47;;;;;;;;;16.25;13.00;;;;;;;;5102565;27;111710;-78
2021/10/26 00:50:13;;;;;;;;;16.25;15.00;;;;;;;;5102070;27;113953;-77
2021/10/26 00:52:38;;;;;;;;;17.50;13.00;;;;;;;;5100721;27;112584;-75
2021/10/26 00:55:04;;;;;;;;;16.00;13.00;;;;;;;;5101788;27;111797;-78
2021/10/26 00:57:29;;;;;;;;;12.75;12.50;;;;;;;;5102178;27;112718;-78
2021/10/26 00:59:55;;;;;;;;;11.25;9.25;;;;;;;;5104961;27;112370;-78
2021/10/26 01:02:21;;;;;;;;;16.00;10.50;;;;;;;;5103027;27;112250;-78
2021/10/26 01:04:46;;;;;;;;;12.50;11.50;;;;;;;;5101123;27;113588;-78
2021/10/26 01:07:12;;;;;;;;;17.25;15.25;;;;;;;;5083834;27;111822;-78
2021/10/26 01:09:38;;;;;;;;;12.75;12.75;;;;;;;;5101717;27;111725;-78
2021/10/26 01:12:04;;;;;;;;;18.25;13.00;;;;;;;;5100774;27;112452;-78
2021/10/26 01:14:30;;;;;;;;;13.00;13.00;;;;;;;;5102552;27;112046;-78
2021/10/26 01:17:01;;;;;;;;;13.25;12.00;;;;;;;;5102241;27;112883;-78
2021/10/26 01:19:32;;;;;;;;;16.75;12.25;;;;;;;;5105079;27;112463;-78
2021/10/26 01:21:57;;;;;;;;;13.50;12.00;;;;;;;;5102027;27;112134;-77
2021/10/26 01:24:22;;;;;;;;;20.00;13.75;;;;;;;;5081636;27;113870;-78
2021/10/26 01:26:47;;;;;;;;;14.50;12.25;;;;;;;;5101824;27;111872;-78
2021/10/26 01:29:13;;;;;;;;;17.50;16.00;;;;;;;;5101870;27;112037;-78
2021/10/26 01:31:38;;;;;;;;;17.75;14.00;;;;;;;;5103377;27;112686;-79
2021/10/26 01:34:03;;;;;;;;;17.25;13.75;;;;;;;;5104888;27;112066;-81
2021/10/26 01:36:29;;;;;;;;;15.75;15.75;;;;;;;;5105282;27;113069;-74
2021/10/26 01:38:54;;;;;;;;;17.00;16.50;;;;;;;;5104656;27;112821;-75
2021/10/26 01:41:19;;;;;;;;;14.00;12.25;;;;;;;;5109310;27;111830;-74
2021/10/26 01:43:44;;;;;;;;;20.25;16.75;;;;;;;;5104179;27;112442;-77
2021/10/26 01:46:10;;;;;;;;;18.50;16.25;;;;;;;;5105194;27;111778;-77
2021/10/26 01:48:35;;;;;;;;;16.50;14.25;;;;;;;;5105123;27;111874;-75
2021/10/26 01:51:02;;;;;;;;;17.50;16.50;;;;;;;;5103806;27;112762;-75
2021/10/26 01:53:27;;;;;;;;;20.50;17.00;;;;;;;;5104289;27;111962;-75
2021/10/26 01:55:53;;;;;;;;;16.00;14.50;;;;;;;;5104693;27;112047;-75
2021/10/26 01:58:19;;;;;;;;;15.50;13.50;;;;;;;;5085200;27;115429;-74
2021/10/26 02:00:44;;;;;;;;;18.00;13.25;;;;;;;;5105413;27;112173;-74
2021/10/26 02:03:09;;;;;;;;;21.00;17.25;;;;;;;;5107869;27;111910;-73
2021/10/26 02:05:35;;;;;;;;;16.00;13.00;;;;;;;;5104752;27;111938;-74
2021/10/26 02:08:00;;;;;;;;;16.50;16.00;;;;;;;;5104663;27;113048;-73
2021/10/26 02:10:25;;;;;;;;;14.25;12.75;;;;;;;;5103674;27;112242;-75
2021/10/26 02:12:51;;;;;;;;;17.25;15.75;;;;;;;;5104513;27;111783;-76
2021/10/26 02:15:17;;;;;;;;;18.50;15.50;;;;;;;;5104707;27;112323;-76
2021/10/26 02:17:42;;;;;;;;;12.50;12.50;;;;;;;;5103284;27;113945;-77
2021/10/26 02:20:08;;;;;;;;;15.25;15.00;;;;;;;;5104241;27;112291;-77
2021/10/26 02:22:33;;;;;;;;;16.50;14.50;;;;;;;;5105033;27;111868;-76
2021/10/26 02:24:59;;;;;;;;;17.00;16.50;;;;;;;;5088699;27;113753;-76
2021/10/26 02:27:24;;;;;;;;;15.00;13.25;;;;;;;;5104870;27;111956;-77
2021/10/26 02:29:49;;;;;;;;;17.75;13.00;;;;;;;;5103820;27;112204;-77
2021/10/26 02:32:15;;;;;;;;;17.75;13.25;;;;;;;;5104727;27;111850;-78
2021/10/26 02:34:40;;;;;;;;;15.00;15.00;;;;;;;;5104080;27;113090;-76
2021/10/26 02:37:06;;;;;;;;;16.75;15.75;;;;;;;;5103045;27;112384;-75
2021/10/26 02:39:31;;;;;;;;;14.25;11.50;;;;;;;;5104129;27;111580;-75
2021/10/26 02:41:56;;;;;;;;;16.50;13.50;;;;;;;;5104034;27;111787;-75
2021/10/26 02:44:22;;;;;;;;;12.75;12.75;;;;;;;;5103018;27;112614;-75
2021/10/26 02:46:47;;;;;;;;;17.00;14.50;;;;;;;;5107021;27;113087;-75
2021/10/26 02:49:14;;;;;;;;;16.00;12.00;;;;;;;;5103525;27;112277;-74
2021/10/26 02:51:39;;;;;;;;;17.00;14.50;;;;;;;;5103818;27;111626;-75
2021/10/26 02:54:05;;;;;;;;;16.00;15.00;;;;;;;;5103569;27;112049;-75
2021/10/26 02:56:31;;;;;;;;;14.50;12.75;;;;;;;;5102621;27;112366;-72
2021/10/26 02:58:56;;;;;;;;;17.50;14.25;;;;;;;;5103957;27;111669;-75
2021/10/26 03:01:22;;;;;;;;;17.50;16.50;;;;;;;;5084742;27;115028;-82
2021/10/26 03:03:47;;;;;;;;;20.25;14.00;;;;;;;;5102994;27;112402;-76
2021/10/26 03:06:13;;;;;;;;;14.00;12.00;;;;;;;;5108304;27;112047;-75
2021/10/26 03:08:38;;;;;;;;;14.00;13.00;;;;;;;;5102741;27;112346;-75
2021/10/26 03:11:04;;;;;;;;;16.75;14.00;;;;;;;;5103873;27;111973;-74
2021/10/26 03:13:30;;;;;;;;;7.50;6.75;;;;;;;;5103690;27;112890;-74
2021/10/26 03:15:55;;;;;;;;;15.50;12.75;;;;;;;;5102732;27;114049;-75
2021/10/26 03:18:20;;;;;;;;;11.00;11.00;;;;;;;;5103457;27;111765;-75
2021/10/26 03:20:46;;;;;;;;;20.50;15.75;;;;;;;;5103283;27;112294;-75
2021/10/26 03:23:11;;;;;;;;;16.75;15.00;;;;;;;;5101580;27;113109;-71
2021/10/26 03:25:36;;;;;;;;;21.00;19.25;;;;;;;;5103078;27;111819;-72
2021/10/26 03:28:02;;;;;;;;;17.50;14.00;;;;;;;;5106115;27;111851;-74
2021/10/26 03:30:27;;;;;;;;;17.75;14.50;;;;;;;;5103120;27;111976;-74
2021/10/26 03:32:52;;;;;;;;;14.50;13.00;;;;;;;;5103846;27;111748;-74
2021/10/26 03:35:18;;;;;;;;;13.25;13.00;;;;;;;;5102554;27;112329;-74
2021/10/26 03:37:44;;;;;;;;;19.50;17.75;;;;;;;;5103711;27;111634;-74
2021/10/26 03:40:11;;;;;;;;;18.25;15.75;;;;;;;;5103439;27;112119;-75
2021/10/26 03:42:36;;;;;;;;;16.00;16.00;;;;;;;;5101518;27;114453;-75
2021/10/26 03:45:02;;;;;;;;;16.00;13.50;;;;;;;;5102720;27;111935;-75
2021/10/26 03:47:27;;;;;;;;;16.50;14.00;;;;;;;;5103721;27;111768;-76
2021/10/26 03:49:53;;;;;;;;;20.25;14.75;;;;;;;;5106341;27;112999;-75
2021/10/26 03:52:18;;;;;;;;;19.00;16.75;;;;;;;;5084041;27;114462;-76
2021/10/26 03:54:44;;;;;;;;;16.50;16.00;;;;;;;;5083144;27;113740;-76
2021/10/26 03:57:11;;;;;;;;;17.75;13.50;;;;;;;;5103121;27;111990;-75
2021/10/26 03:59:36;;;;;;;;;17.50;16.50;;;;;;;;5094442;27;112192;-75
2021/10/26 04:02:08;;;;;;;;;17.75;16.50;;;;;;;;5101512;27;114008;-76
2021/10/26 04:04:34;;;;;;;;;18.25;15.00;;;;;;;;5103105;27;111820;-77
2021/10/26 04:07:01;;;;;;;;;17.25;16.25;;;;;;;;5102872;27;113649;-76
2021/10/26 04:09:42;;;;;;;;;17.00;16.50;;;;;;;;5101094;27;114254;-76
2021/10/26 04:15:02;;;;;;;;;16.00;12.75;;;;;;;;5087207;27;113762;-74
2021/10/26 04:17:27;;;;;;;;;20.25;17.25;;;;;;;;5102901;27;111791;-74
2021/10/26 04:19:58;;;;;;;;;26.00;25.25;;;;;;;;5101890;27;112816;-74
2021/10/26 04:22:23;;;;;;;;;24.00;21.00;;;;;;;;5100705;27;112578;-75
2021/10/26 04:24:49;;;;;;;;;19.00;19.00;;;;;;;;5102110;27;112647;-75
2021/10/26 04:27:15;;;;;;;;;26.50;22.25;;;;;;;;5102397;27;113022;-75
2021/10/26 04:29:41;;;;;;;;;23.50;19.50;;;;;;;;5082941;27;116189;-76
2021/10/26 04:32:09;;;;;;;;;32.75;27.00;;;;;;;;5102384;27;111880;-76
2021/10/26 04:34:34;;;;;;;;;28.00;24.00;;;;;;;;5105617;27;112089;-76
2021/10/26 04:36:59;;;;;;;;;23.50;22.00;;;;;;;;5103074;27;112023;-77
2021/10/26 04:39:25;;;;;;;;;21.50;19.75;;;;;;;;5102971;27;111896;-77
2021/10/26 04:41:50;;;;;;;;;21.00;17.75;;;;;;;;5101393;27;112302;-76
2021/10/26 04:44:16;;;;;;;;;17.25;15.00;;;;;;;;5102297;27;112882;-76
2021/10/26 04:46:41;;;;;;;;;16.25;15.25;;;;;;;;5102228;27;113460;-78
2021/10/26 04:49:07;;;;;;;;;17.50;16.75;;;;;;;;5101131;27;112384;-77
2021/10/26 04:51:32;;;;;;;;;20.25;16.00;;;;;;;;5101982;27;112178;-76
2021/10/26 04:53:57;;;;;;;;;21.25;15.25;;;;;;;;5101245;27;112788;-75
2021/10/26 04:56:23;;;;;;;;;22.50;21.50;;;;;;;;5104280;27;113717;-76
2021/10/26 04:58:48;;;;;;;;;19.75;19.75;;;;;;;;5101796;27;112338;-76
2021/10/26 05:01:13;;;;;;;;;23.00;20.00;;;;;;;;5100834;27;112698;-76
2021/10/26 05:03:38;;;;;;;;;17.00;16.00;;;;;;;;5101146;27;112004;-76
2021/10/26 05:06:04;;;;;;;;;25.50;23.00;;;;;;;;5103777;27;112297;-75
2021/10/26 05:08:30;;;;;;;;;25.00;22.75;;;;;;;;5104399;27;112458;-73
2021/10/26 05:10:55;;;;;;;;;18.50;18.50;;;;;;;;5105853;27;111696;-74
2021/10/26 14:53:12;;;;;;;;;9.50;8.75;;;;;;;;5079995;27;111945;-72
2021/10/26 14:56:21;;;;;;;;;8.25;8.25;;;;;;;;5077819;27;112639;-70
2021/10/26 14:58:26;;;;;;;;;11.00;8.25;;;;;;;;5068038;27;111930;-72
2021/10/26 15:00:53;;;;;;;;;9.00;9.00;;;;;;;;5079097;27;112326;-71
2021/10/26 15:03:18;;;;;;;;;10.25;9.75;;;;;;;;5077777;27;112360;-70
2021/10/26 15:05:44;;;;;;;;;8.25;8.25;;;;;;;;5082655;27;112409;-72
2021/10/26 15:08:11;;;;;;;;;8.00;8.00;;;;;;;;5077018;27;112547;-70
2021/10/26 15:10:57;;;;;;;;;8.50;8.50;;;;;;;;5078612;27;111950;-71
2021/10/26 15:13:29;;;;;;;;;12.75;10.00;;;;;;;;5078683;27;111771;-69
2021/10/26 15:15:55;;;;;;;;;11.25;10.50;;;;;;;;5076428;27;112554;-71
2021/10/26 15:18:20;;;;;;;;;11.00;9.00;;;;;;;;5078328;27;111853;-71
2021/10/26 15:20:49;;;;;;;;;9.50;9.00;;;;;;;;5078806;27;112174;-78
2021/10/26 15:23:32;;;;;;;;;10.25;10.25;;;;;;;;5077460;27;112470;-81
2021/10/26 15:34:14;;;;;;;;;11.50;9.75;;;;;;;;5076647;27;111800;-70
2021/10/26 15:36:40;;;;;;;;;12.50;9.00;;;;;;;;5077292;27;112701;-69
2021/10/26 15:39:05;;;;;;;;;11.25;10.75;;;;;;;;5077761;27;111780;-72
2021/10/26 15:41:31;;;;;;;;;12.50;9.75;;;;;;;;5074464;27;112170;-70
2021/10/26 15:43:56;;;;;;;;;10.75;9.50;;;;;;;;5055304;27;112493;-70
2021/10/26 15:46:22;;;;;;;;;13.25;8.25;;;;;;;;5058222;27;111728;-68
2021/10/26 15:48:48;;;;;;;;;10.75;9.75;;;;;;;;5051756;27;112404;-68
2021/10/26 15:51:14;;;;;;;;;9.50;9.50;;;;;;;;5042105;27;115495;-68
2021/10/26 15:53:39;;;;;;;;;11.75;10.00;;;;;;;;5057491;27;112932;-67
2021/10/26 15:56:05;;;;;;;;;9.25;9.00;;;;;;;;5041944;27;112699;-67
2021/10/26 15:58:30;;;;;;;;;10.25;9.25;;;;;;;;5044319;27;111832;-67
2021/10/26 16:00:56;;;;;;;;;11.00;10.25;;;;;;;;5044161;27;112748;-67
2021/10/26 16:03:21;;;;;;;;;11.25;10.00;;;;;;;;5049226;27;113687;-68
2021/10/26 16:05:46;;;;;;;;;11.00;10.50;;;;;;;;5060484;27;116720;-80
2021/10/26 16:08:17;;;;;;;;;12.25;10.75;;;;;;;;5063155;27;112614;-83
2021/10/26 16:11:07;;;;;;;;;13.00;11.50;;;;;;;;5062109;27;112432;-83
2021/10/26 16:13:30;;;;;;;;;13.50;10.50;;;;;;;;5065285;27;111897;-88
2021/10/26 16:16:07;;;;;;;;;2.50;2.00;;;;;;;;5043540;27;112839;-79
2021/10/26 16:18:34;;;;;;;;;10.75;9.75;;;;;;;;5045387;27;112085;-77
2021/10/26 16:21:00;;;;;;;;;12.25;10.00;;;;;;;;5064705;27;112171;-80
2021/10/26 16:23:27;;;;;;;;;13.50;13.00;;;;;;;;5062010;27;112365;-79
2021/10/26 16:25:52;;;;;;;;;14.50;11.25;;;;;;;;5062911;27;111723;-80
2021/10/26 16:28:21;;;;;;;;;12.00;11.25;;;;;;;;5044305;27;115233;-79
2021/10/26 16:30:47;;;;;;;;;12.75;12.75;;;;;;;;5043518;27;114194;-80
2021/10/26 16:33:14;;;;;;;;;14.25;12.00;;;;;;;;5063360;27;112203;-88
2021/10/26 16:35:40;;;;;;;;;11.00;10.00;;;;;;;;5065033;27;112206;-83
2021/10/26 16:38:06;;;;;;;;;13.75;11.00;;;;;;;;5063344;27;111814;-88
2021/10/26 16:40:33;;;;;;;;;14.00;12.50;;;;;;;;5063413;27;112275;-85
2021/10/26 16:46:14;;;;;;;;;19.00;15.00;;;;;;;;4959347;28;112143;-78
2021/10/26 16:48:39;;;;;;;;;16.75;15.25;;;;;;;;4959339;28;113073;-76
2021/10/26 16:51:04;;;;;;;;;17.50;15.00;;;;;;;;5013653;27;113204;-75
2021/10/26 16:53:29;;;;;;;;;16.25;14.00;;;;;;;;5062812;27;111854;-75
2021/10/26 16:55:55;;;;;;;;;16.00;12.50;;;;;;;;5062689;27;111698;-74
2021/10/26 16:58:20;;;;;;;;;13.50;11.25;;;;;;;;5046862;27;112057;-81
2021/10/26 17:00:50;;;;;;;;;14.75;10.00;;;;;;;;5062877;27;111789;-82
2021/10/26 17:03:15;;;;;;;;;15.25;13.50;;;;;;;;5061585;27;113382;-79
2021/10/26 17:05:41;;;;;;;;;15.00;10.25;;;;;;;;5060648;27;112074;-81
2021/10/26 17:08:06;;;;;;;;;13.75;13.50;;;;;;;;5061660;27;112412;-74
2021/10/26 17:10:38;;;;;;;;;15.25;15.00;;;;;;;;5061228;27;112462;-82
2021/10/26 17:13:03;;;;;;;;;14.25;13.00;;;;;;;;5041700;27;112275;-78
2021/10/26 17:15:34;;;;;;;;;14.25;13.00;;;;;;;;5060779;27;112178;-79
2021/10/26 17:18:00;;;;;;;;;14.75;14.25;;;;;;;;5065493;27;112678;-76
2021/10/26 17:20:25;;;;;;;;;19.25;16.00;;;;;;;;5062611;27;111916;-77
2021/10/26 17:22:50;;;;;;;;;18.25;13.00;;;;;;;;5061857;27;112321;-82
2021/10/26 17:25:17;;;;;;;;;16.25;13.75;;;;;;;;5062730;27;111962;-79
2021/10/26 17:27:42;;;;;;;;;13.00;10.00;;;;;;;;5062686;27;112168;-86
2021/10/26 17:30:07;;;;;;;;;15.00;13.00;;;;;;;;5061495;27;112544;-76
2021/10/26 17:32:33;;;;;;;;;10.50;9.00;;;;;;;;5061622;27;112153;-78
2021/10/26 17:34:58;;;;;;;;;18.50;18.50;;;;;;;;5061664;27;112574;-84
2021/10/26 17:37:24;;;;;;;;;24.00;22.75;;;;;;;;5062112;27;112899;-82
2021/10/26 17:39:49;;;;;;;;;18.25;14.25;;;;;;;;5066564;27;112320;-82
2021/10/26 17:42:15;;;;;;;;;18.50;13.25;;;;;;;;5061215;27;112282;-83
2021/10/26 17:44:40;;;;;;;;;16.25;16.25;;;;;;;;5062171;27;111937;-79
2021/10/26 17:47:06;;;;;;;;;22.00;20.50;;;;;;;;5062124;27;111790;-76
2021/10/26 17:49:32;;;;;;;;;18.25;18.00;;;;;;;;5060512;27;112857;-73
2021/10/26 17:51:58;;;;;;;;;19.00;18.00;;;;;;;;5061632;27;111939;-73
2021/10/26 17:54:23;;;;;;;;;21.25;20.25;;;;;;;;5061691;27;112885;-73
2021/10/26 17:56:49;;;;;;;;;23.25;17.50;;;;;;;;5061622;27;112626;-79
2021/10/26 17:59:15;;;;;;;;;21.00;18.50;;;;;;;;5062331;27;113111;-74
2021/10/26 18:01:40;;;;;;;;;15.00;13.00;;;;;;;;5064472;27;111959;-71
2021/10/26 18:04:06;;;;;;;;;18.75;18.00;;;;;;;;5061609;27;112023;-72
2021/10/26 18:06:32;;;;;;;;;16.00;14.00;;;;;;;;5062003;27;111725;-74
2021/10/26 18:09:05;;;;;;;;;18.00;17.50;;;;;;;;5060351;27;112312;-73
2021/10/26 18:11:33;;;;;;;;;17.25;14.00;;;;;;;;5061155;27;112127;-76
2021/10/26 18:13:58;;;;;;;;;14.00;12.50;;;;;;;;5061922;27;111810;-77
2021/10/26 18:16:24;;;;;;;;;13.25;12.00;;;;;;;;5061158;27;112313;-76
2021/10/26 18:18:50;;;;;;;;;16.50;14.00;;;;;;;;5042601;27;112218;-77
2021/10/26 18:21:16;;;;;;;;;14.75;14.00;;;;;;;;5061143;27;112791;-73
2021/10/26 18:23:41;;;;;;;;;17.25;15.50;;;;;;;;5063719;27;112534;-74
2021/10/26 18:26:09;;;;;;;;;18.75;18.75;;;;;;;;5061015;27;112878;-74
2021/10/26 18:28:35;;;;;;;;;20.75;15.00;;;;;;;;5060305;27;112382;-76
2021/10/26 18:31:01;;;;;;;;;20.25;17.50;;;;;;;;5038881;27;112047;-74
2021/10/26 18:33:33;;;;;;;;;23.75;21.00;;;;;;;;5061162;27;112243;-86
2021/10/26 18:36:04;;;;;;;;;20.00;18.50;;;;;;;;5042647;27;114691;-90
2021/10/26 18:38:34;;;;;;;;;20.50;19.50;;;;;;;;5062479;27;111963;-87
2021/10/26 18:41:17;;;;;;;;;25.50;21.50;;;;;;;;5043304;27;114175;-91
2021/10/26 18:43:46;;;;;;;;;25.00;20.75;;;;;;;;5041125;27;115538;-82
2021/10/26 21:15:40;;;;;;;;;16.50;15.00;;;;;;;;5140706;27;112113;-78
2021/10/26 21:18:05;;;;;;;;;15.75;13.25;;;;;;;;5118355;27;112724;-77
2021/10/26 21:20:31;;;;;;;;;15.00;12.00;;;;;;;;5100795;27;112037;-78
2021/10/26 21:22:56;;;;;;;;;17.00;12.75;;;;;;;;5095309;27;112800;-77
2021/10/26 21:25:21;;;;;;;;;17.75;16.00;;;;;;;;5107375;27;113119;-77
2021/10/26 21:27:47;;;;;;;;;15.00;13.50;;;;;;;;5104234;27;111716;-77
2021/10/26 21:30:14;;;;;;;;;16.75;15.75;;;;;;;;5119989;27;111980;-78
2021/10/26 21:32:41;;;;;;;;;15.75;14.00;;;;;;;;5118741;27;113741;-78
2021/10/26 21:35:11;;;;;;;;;16.50;15.00;;;;;;;;5124014;27;111979;-78
2021/10/26 21:38:09;;;;;;;;;15.75;14.75;;;;;;;;5100432;27;114001;-76
2021/10/26 21:40:28;;;;;;;;;15.75;13.25;;;;;;;;5119622;27;112364;-77
2021/10/26 21:42:53;;;;;;;;;8.75;8.50;;;;;;;;5119835;27;112182;-77
2021/10/26 21:45:18;;;;;;;;;10.50;9.00;;;;;;;;5119611;27;112375;-77
2021/10/26 21:47:47;;;;;;;;;13.25;11.50;;;;;;;;5120359;27;111875;-78
2021/10/26 21:50:19;;;;;;;;;7.00;6.00;;;;;;;;5119850;27;113147;-76
2021/10/26 21:52:44;;;;;;;;;8.00;8.00;;;;;;;;5118788;27;113802;-76
2021/10/26 21:55:10;;;;;;;;;11.00;9.00;;;;;;;;5120047;27;111938;-76
2021/10/26 21:57:35;;;;;;;;;14.75;9.00;;;;;;;;5104202;27;114964;-78
2021/10/26 22:00:01;;;;;;;;;9.50;8.50;;;;;;;;5099765;27;112454;-77
2021/10/26 22:02:27;;;;;;;;;13.50;9.00;;;;;;;;5118556;27;112607;-77
2021/10/26 22:04:52;;;;;;;;;8.50;8.00;;;;;;;;5117746;27;114196;-79
2021/10/26 22:07:20;;;;;;;;;9.25;8.00;;;;;;;;5118790;27;111992;-78
2021/10/26 22:09:45;;;;;;;;;7.50;5.50;;;;;;;;5099256;27;116653;-77
2021/10/26 22:12:10;;;;;;;;;6.00;5.50;;;;;;;;5097810;27;112619;-78
2021/10/26 22:14:36;;;;;;;;;8.00;6.00;;;;;;;;5099889;27;112848;-78
2021/10/26 22:17:01;;;;;;;;;9.50;7.50;;;;;;;;5119959;27;111714;-77
2021/10/26 22:19:27;;;;;;;;;7.25;7.00;;;;;;;;5103619;27;113803;-76
2021/10/26 22:21:52;;;;;;;;;8.75;8.00;;;;;;;;5119808;27;113770;-78
2021/10/26 22:24:17;;;;;;;;;8.00;8.00;;;;;;;;5119169;27;113943;-77
2021/10/26 22:26:43;;;;;;;;;11.50;8.00;;;;;;;;5105684;27;111902;-77
2021/10/26 22:29:08;;;;;;;;;11.00;8.75;;;;;;;;5105551;27;113164;-78
2021/10/26 22:31:33;;;;;;;;;9.00;8.00;;;;;;;;5104675;27;112535;-79
2021/10/26 22:33:59;;;;;;;;;7.75;7.75;;;;;;;;5106218;27;111953;-78
2021/10/26 22:36:25;;;;;;;;;9.00;7.00;;;;;;;;5086588;27;114264;-78
2021/10/26 22:38:50;;;;;;;;;9.50;7.50;;;;;;;;5086951;27;115616;-78
2021/10/26 22:41:15;;;;;;;;;12.25;8.50;;;;;;;;5110364;27;112425;-78
2021/10/26 22:43:40;;;;;;;;;11.50;8.25;;;;;;;;5104436;27;113444;-78
2021/10/26 22:46:06;;;;;;;;;13.00;7.00;;;;;;;;5106306;27;111731;-77
2021/10/26 22:48:34;;;;;;;;;12.50;9.75;;;;;;;;5105663;27;113187;-77
2021/10/26 22:50:59;;;;;;;;;11.00;8.75;;;;;;;;5103852;27;114262;-78
2021/10/26 22:53:25;;;;;;;;;9.25;9.25;;;;;;;;5106219;27;111861;-77
2021/10/26 22:55:50;;;;;;;;;9.50;9.50;;;;;;;;5106126;27;112232;-78
2021/10/26 22:58:15;;;;;;;;;11.25;9.00;;;;;;;;5104637;27;113526;-76
2021/10/26 23:00:41;;;;;;;;;13.75;10.50;;;;;;;;5106154;27;111939;-77
2021/10/26 23:03:07;;;;;;;;;12.00;10.50;;;;;;;;5107250;27;113048;-78
2021/10/26 23:05:32;;;;;;;;;9.25;9.25;;;;;;;;5104319;27;112505;-78
2021/10/26 23:07:57;;;;;;;;;8.50;8.50;;;;;;;;5105431;27;113011;-78
2021/10/26 23:10:23;;;;;;;;;10.00;7.50;;;;;;;;5104050;27;112364;-78
2021/10/26 23:12:48;;;;;;;;;7.00;6.00;;;;;;;;5105340;27;112013;-76
2021/10/26 23:15:13;;;;;;;;;7.25;5.50;;;;;;;;5104498;27;113046;-77
2021/10/26 23:17:39;;;;;;;;;7.00;7.00;;;;;;;;5103868;27;113735;-77
2021/10/26 23:20:05;;;;;;;;;7.00;7.00;;;;;;;;5105058;27;112768;-76
2021/10/26 23:22:30;;;;;;;;;11.50;8.25;;;;;;;;5105658;27;111912;-77
2021/10/26 23:24:56;;;;;;;;;8.50;6.00;;;;;;;;5107686;27;112315;-77
2021/10/26 23:27:22;;;;;;;;;6.50;6.50;;;;;;;;5105396;27;111825;-78
2021/10/26 23:29:47;;;;;;;;;13.75;8.50;;;;;;;;5085503;27;115232;-77
2021/10/26 23:32:12;;;;;;;;;5.75;5.25;;;;;;;;5105040;27;111879;-77
2021/10/26 23:34:38;;;;;;;;;9.25;9.00;;;;;;;;5104721;27;111891;-77
2021/10/26 23:37:04;;;;;;;;;8.50;5.00;;;;;;;;5102372;27;112920;-77
2021/10/26 23:39:29;;;;;;;;;9.50;9.50;;;;;;;;5105467;27;111752;-78
2021/10/26 23:41:54;;;;;;;;;8.00;8.00;;;;;;;;5105212;27;112768;-78
2021/10/26 23:44:20;;;;;;;;;8.25;8.25;;;;;;;;5107840;27;112367;-77
2021/10/26 23:46:45;;;;;;;;;8.00;8.00;;;;;;;;5105173;27;111790;-77
2021/10/26 23:49:10;;;;;;;;;9.00;9.00;;;;;;;;5104068;27;112962;-77
2021/10/26 23:51:36;;;;;;;;;10.00;8.50;;;;;;;;5104921;27;111890;-79
2021/10/26 23:54:01;;;;;;;;;12.50;9.50;;;;;;;;5104742;27;112131;-77
2021/10/26 23:56:26;;;;;;;;;10.00;10.00;;;;;;;;5103633;27;112713;-78
2021/10/26 23:58:52;;;;;;;;;10.00;9.00;;;;;;;;5103987;27;112147;-78
